sensor_id;sensor_type;location;lat;lon;timestamp;P1;durP1;ratioP1;P2;durP2;ratioP2
24843;SDS011;12921;51.392;12.240;2022-12-18T00:01:50;0.30;;;0.30;;
24843;SDS011;12921;51.392;12.240;2022-12-18T00:04:20;1.08;;;1.00;;
24843;SDS011;12921;51.392;12.240;2022-12-18T00:06:47;5.10;;;4.75;;
24843;SDS011;12921;51.392;12.240;2022-12-18T00:09:13;8.57;;;7.53;;
24843;SDS011;12921;51.392;12.240;2022-12-18T00:11:39;3.80;;;2.45;;
24843;SDS011;12921;51.392;12.240;2022-12-18T00:14:04;2.05;;;1.95;;
24843;SDS011;12921;51.392;12.240;2022-12-18T00:16:30;2.50;;;1.98;;
24843;SDS011;12921;51.392;12.240;2022-12-18T00:18:58;0.30;;;0.30;;
24843;SDS011;12921;51.392;12.240;2022-12-18T00:21:25;1.95;;;1.35;;
24843;SDS011;12921;51.392;12.240;2022-12-18T00:23:51;24.73;;;6.05;;
24843;SDS011;12921;51.392;12.240;2022-12-18T00:26:21;38.13;;;16.65;;
24843;SDS011;12921;51.392;12.240;2022-12-18T00:28:50;18.33;;;11.50;;
24843;SDS011;12921;51.392;12.240;2022-12-18T00:31:18;5.45;;;4.88;;
24843;SDS011;12921;51.392;12.240;2022-12-18T00:33:45;5.13;;;4.50;;
24843;SDS011;12921;51.392;12.240;2022-12-18T00:36:15;1.67;;;1.65;;
24843;SDS011;12921;51.392;12.240;2022-12-18T00:38:42;2.30;;;2.20;;
24843;SDS011;12921;51.392;12.240;2022-12-18T00:41:09;1.08;;;1.08;;
24843;SDS011;12921;51.392;12.240;2022-12-18T00:43:36;0.75;;;0.75;;
24843;SDS011;12921;51.392;12.240;2022-12-18T00:46:03;1.65;;;1.65;;
24843;SDS011;12921;51.392;12.240;2022-12-18T00:48:28;0.75;;;0.75;;
24843;SDS011;12921;51.392;12.240;2022-12-18T00:50:54;0.63;;;0.63;;
24843;SDS011;12921;51.392;12.240;2022-12-18T00:53:20;0.40;;;0.40;;
24843;SDS011;12921;51.392;12.240;2022-12-18T00:55:46;4.00;;;3.65;;
24843;SDS011;12921;51.392;12.240;2022-12-18T00:58:12;0.95;;;0.95;;
24843;SDS011;12921;51.392;12.240;2022-12-18T01:00:40;2.78;;;2.60;;
24843;SDS011;12921;51.392;12.240;2022-12-18T01:03:06;3.33;;;3.13;;
24843;SDS011;12921;51.392;12.240;2022-12-18T01:05:32;17.05;;;12.30;;
24843;SDS011;12921;51.392;12.240;2022-12-18T01:07:57;3.42;;;3.22;;
24843;SDS011;12921;51.392;12.240;2022-12-18T01:10:24;4.80;;;4.40;;
24843;SDS011;12921;51.392;12.240;2022-12-18T01:12:50;4.47;;;1.90;;
24843;SDS011;12921;51.392;12.240;2022-12-18T01:15:16;11.43;;;6.32;;
24843;SDS011;12921;51.392;12.240;2022-12-18T01:17:42;1.45;;;1.45;;
24843;SDS011;12921;51.392;12.240;2022-12-18T01:20:08;1.30;;;1.25;;
24843;SDS011;12921;51.392;12.240;2022-12-18T01:22:35;9.50;;;4.78;;
24843;SDS011;12921;51.392;12.240;2022-12-18T01:25:02;0.50;;;0.50;;
24843;SDS011;12921;51.392;12.240;2022-12-18T01:27:29;0.77;;;0.77;;
24843;SDS011;12921;51.392;12.240;2022-12-18T01:29:54;30.80;;;11.30;;
24843;SDS011;12921;51.392;12.240;2022-12-18T01:32:20;3.75;;;3.35;;
24843;SDS011;12921;51.392;12.240;2022-12-18T01:34:46;3.20;;;2.92;;
24843;SDS011;12921;51.392;12.240;2022-12-18T01:37:12;6.95;;;6.32;;
24843;SDS011;12921;51.392;12.240;2022-12-18T01:39:38;3.95;;;3.75;;
24843;SDS011;12921;51.392;12.240;2022-12-18T01:42:05;1.50;;;1.50;;
24843;SDS011;12921;51.392;12.240;2022-12-18T01:49:59;1.15;;;1.15;;
24843;SDS011;12921;51.392;12.240;2022-12-18T01:52:32;24.98;;;12.82;;
24843;SDS011;12921;51.392;12.240;2022-12-18T01:54:59;6.22;;;5.72;;
24843;SDS011;12921;51.392;12.240;2022-12-18T01:57:26;7.78;;;7.25;;
24843;SDS011;12921;51.392;12.240;2022-12-18T01:59:53;1.25;;;1.25;;
24843;SDS011;12921;51.392;12.240;2022-12-18T02:02:23;2.08;;;2.03;;
24843;SDS011;12921;51.392;12.240;2022-12-18T02:04:52;17.42;;;8.32;;
24843;SDS011;12921;51.392;12.240;2022-12-18T02:07:27;6.13;;;5.63;;
24843;SDS011;12921;51.392;12.240;2022-12-18T02:10:12;21.55;;;8.15;;
24843;SDS011;12921;51.392;12.240;2022-12-18T02:12:54;5.57;;;5.03;;
24843;SDS011;12921;51.392;12.240;2022-12-18T02:15:24;0.30;;;0.30;;
24843;SDS011;12921;51.392;12.240;2022-12-18T02:17:58;0.85;;;0.85;;
24843;SDS011;12921;51.392;12.240;2022-12-18T02:20:34;35.28;;;15.95;;
24843;SDS011;12921;51.392;12.240;2022-12-18T02:28:40;6.30;;;5.65;;
24843;SDS011;12921;51.392;12.240;2022-12-18T02:31:13;47.30;;;21.95;;
24843;SDS011;12921;51.392;12.240;2022-12-18T02:33:48;16.02;;;9.23;;
24843;SDS011;12921;51.392;12.240;2022-12-18T02:36:16;12.27;;;11.10;;
24843;SDS011;12921;51.392;12.240;2022-12-18T02:38:44;11.48;;;8.60;;
24843;SDS011;12921;51.392;12.240;2022-12-18T02:41:11;3.03;;;2.72;;
24843;SDS011;12921;51.392;12.240;2022-12-18T02:43:38;2.60;;;2.47;;
24843;SDS011;12921;51.392;12.240;2022-12-18T02:49:24;1.00;;;1.00;;
24843;SDS011;12921;51.392;12.240;2022-12-18T02:52:01;18.25;;;6.60;;
24843;SDS011;12921;51.392;12.240;2022-12-18T03:00:28;22.77;;;11.02;;
24843;SDS011;12921;51.392;12.240;2022-12-18T03:02:57;32.20;;;15.88;;
24843;SDS011;12921;51.392;12.240;2022-12-18T03:05:33;32.28;;;7.82;;
24843;SDS011;12921;51.392;12.240;2022-12-18T03:08:07;3.47;;;3.10;;
24843;SDS011;12921;51.392;12.240;2022-12-18T03:10:38;3.40;;;3.20;;
24843;SDS011;12921;51.392;12.240;2022-12-18T03:13:08;9.95;;;6.70;;
24843;SDS011;12921;51.392;12.240;2022-12-18T03:15:39;6.68;;;5.03;;
24843;SDS011;12921;51.392;12.240;2022-12-18T03:18:19;13.10;;;7.45;;
24843;SDS011;12921;51.392;12.240;2022-12-18T03:20:50;1.70;;;1.70;;
24843;SDS011;12921;51.392;12.240;2022-12-18T03:23:19;1.95;;;1.85;;
24843;SDS011;12921;51.392;12.240;2022-12-18T03:25:49;9.40;;;2.95;;
24843;SDS011;12921;51.392;12.240;2022-12-18T03:28:20;4.03;;;2.60;;
24843;SDS011;12921;51.392;12.240;2022-12-18T03:30:47;33.83;;;15.23;;
24843;SDS011;12921;51.392;12.240;2022-12-18T03:33:40;9.90;;;4.70;;
24843;SDS011;12921;51.392;12.240;2022-12-18T03:36:06;0.40;;;0.40;;
24843;SDS011;12921;51.392;12.240;2022-12-18T03:38:32;0.55;;;0.55;;
24843;SDS011;12921;51.392;12.240;2022-12-18T03:43:59;7.03;;;3.58;;
24843;SDS011;12921;51.392;12.240;2022-12-18T03:46:41;4.97;;;4.07;;
24843;SDS011;12921;51.392;12.240;2022-12-18T03:49:28;6.28;;;2.78;;
24843;SDS011;12921;51.392;12.240;2022-12-18T03:52:17;1.30;;;1.30;;
24843;SDS011;12921;51.392;12.240;2022-12-18T03:54:43;1.55;;;1.45;;
24843;SDS011;12921;51.392;12.240;2022-12-18T03:57:11;7.07;;;4.88;;
24843;SDS011;12921;51.392;12.240;2022-12-18T03:59:43;1.35;;;1.35;;
24843;SDS011;12921;51.392;12.240;2022-12-18T04:02:11;5.78;;;3.92;;
24843;SDS011;12921;51.392;12.240;2022-12-18T04:04:37;2.88;;;2.70;;
24843;SDS011;12921;51.392;12.240;2022-12-18T04:07:05;5.30;;;4.90;;
24843;SDS011;12921;51.392;12.240;2022-12-18T04:09:32;0.75;;;0.75;;
24843;SDS011;12921;51.392;12.240;2022-12-18T04:11:58;6.22;;;4.68;;
24843;SDS011;12921;51.392;12.240;2022-12-18T04:14:24;38.40;;;15.90;;
24843;SDS011;12921;51.392;12.240;2022-12-18T04:16:50;50.13;;;19.30;;
24843;SDS011;12921;51.392;12.240;2022-12-18T04:19:16;9.90;;;4.85;;
24843;SDS011;12921;51.392;12.240;2022-12-18T04:21:41;35.20;;;13.82;;
24843;SDS011;12921;51.392;12.240;2022-12-18T04:24:07;12.13;;;6.05;;
24843;SDS011;12921;51.392;12.240;2022-12-18T04:26:33;3.00;;;2.90;;
24843;SDS011;12921;51.392;12.240;2022-12-18T04:28:59;2.45;;;2.17;;
24843;SDS011;12921;51.392;12.240;2022-12-18T04:31:25;15.32;;;11.88;;
24843;SDS011;12921;51.392;12.240;2022-12-18T04:33:50;6.85;;;6.07;;
24843;SDS011;12921;51.392;12.240;2022-12-18T04:36:16;2.15;;;1.98;;
24843;SDS011;12921;51.392;12.240;2022-12-18T04:38:42;15.07;;;9.00;;
24843;SDS011;12921;51.392;12.240;2022-12-18T04:41:07;10.75;;;5.50;;
24843;SDS011;12921;51.392;12.240;2022-12-18T04:43:33;29.48;;;12.30;;
24843;SDS011;12921;51.392;12.240;2022-12-18T04:46:02;12.15;;;9.35;;
24843;SDS011;12921;51.392;12.240;2022-12-18T04:48:29;81.68;;;33.25;;
24843;SDS011;12921;51.392;12.240;2022-12-18T04:50:55;34.03;;;18.60;;
24843;SDS011;12921;51.392;12.240;2022-12-18T04:53:20;84.30;;;30.65;;
24843;SDS011;12921;51.392;12.240;2022-12-18T04:55:46;93.72;;;36.40;;
24843;SDS011;12921;51.392;12.240;2022-12-18T04:58:11;63.55;;;27.92;;
24843;SDS011;12921;51.392;12.240;2022-12-18T05:00:37;79.68;;;33.97;;
24843;SDS011;12921;51.392;12.240;2022-12-18T05:03:03;72.25;;;29.00;;
24843;SDS011;12921;51.392;12.240;2022-12-18T05:05:28;61.58;;;25.85;;
24843;SDS011;12921;51.392;12.240;2022-12-18T05:07:54;48.58;;;18.83;;
24843;SDS011;12921;51.392;12.240;2022-12-18T05:10:19;54.65;;;25.52;;
24843;SDS011;12921;51.392;12.240;2022-12-18T05:12:45;79.28;;;34.25;;
24843;SDS011;12921;51.392;12.240;2022-12-18T05:15:23;68.90;;;28.75;;
24843;SDS011;12921;51.392;12.240;2022-12-18T05:17:51;23.05;;;11.95;;
24843;SDS011;12921;51.392;12.240;2022-12-18T05:20:17;27.70;;;14.48;;
24843;SDS011;12921;51.392;12.240;2022-12-18T05:22:43;38.90;;;17.67;;
24843;SDS011;12921;51.392;12.240;2022-12-18T05:25:09;54.38;;;20.42;;
24843;SDS011;12921;51.392;12.240;2022-12-18T05:27:34;47.53;;;20.75;;
24843;SDS011;12921;51.392;12.240;2022-12-18T05:30:00;24.67;;;9.30;;
24843;SDS011;12921;51.392;12.240;2022-12-18T05:32:25;7.43;;;2.58;;
24843;SDS011;12921;51.392;12.240;2022-12-18T05:34:51;8.43;;;6.70;;
24843;SDS011;12921;51.392;12.240;2022-12-18T05:37:17;39.58;;;16.80;;
24843;SDS011;12921;51.392;12.240;2022-12-18T05:39:43;32.22;;;11.20;;
24843;SDS011;12921;51.392;12.240;2022-12-18T05:42:08;17.10;;;9.98;;
24843;SDS011;12921;51.392;12.240;2022-12-18T05:44:34;42.78;;;19.20;;
24843;SDS011;12921;51.392;12.240;2022-12-18T05:47:00;45.30;;;16.90;;
24843;SDS011;12921;51.392;12.240;2022-12-18T05:49:26;46.13;;;24.00;;
24843;SDS011;12921;51.392;12.240;2022-12-18T05:51:51;28.35;;;11.60;;
24843;SDS011;12921;51.392;12.240;2022-12-18T05:54:17;16.88;;;10.38;;
24843;SDS011;12921;51.392;12.240;2022-12-18T05:56:43;30.92;;;13.85;;
24843;SDS011;12921;51.392;12.240;2022-12-18T05:59:08;48.17;;;19.50;;
24843;SDS011;12921;51.392;12.240;2022-12-18T06:01:34;14.45;;;8.77;;
24843;SDS011;12921;51.392;12.240;2022-12-18T06:04:00;42.88;;;20.08;;
24843;SDS011;12921;51.392;12.240;2022-12-18T06:06:26;47.80;;;22.58;;
24843;SDS011;12921;51.392;12.240;2022-12-18T06:08:52;43.38;;;18.05;;
24843;SDS011;12921;51.392;12.240;2022-12-18T06:11:21;27.48;;;14.40;;
24843;SDS011;12921;51.392;12.240;2022-12-18T06:13:52;65.93;;;26.95;;
24843;SDS011;12921;51.392;12.240;2022-12-18T06:16:19;54.92;;;24.55;;
24843;SDS011;12921;51.392;12.240;2022-12-18T06:18:45;64.97;;;31.05;;
24843;SDS011;12921;51.392;12.240;2022-12-18T06:21:11;54.10;;;27.75;;
24843;SDS011;12921;51.392;12.240;2022-12-18T06:23:38;53.42;;;24.10;;
24843;SDS011;12921;51.392;12.240;2022-12-18T06:26:07;56.53;;;23.13;;
24843;SDS011;12921;51.392;12.240;2022-12-18T06:28:36;49.28;;;23.45;;
24843;SDS011;12921;51.392;12.240;2022-12-18T06:31:03;25.38;;;12.02;;
24843;SDS011;12921;51.392;12.240;2022-12-18T06:33:29;23.70;;;11.75;;
24843;SDS011;12921;51.392;12.240;2022-12-18T06:36:08;52.47;;;22.27;;
24843;SDS011;12921;51.392;12.240;2022-12-18T06:38:36;53.85;;;28.40;;
24843;SDS011;12921;51.392;12.240;2022-12-18T06:41:07;50.92;;;21.65;;
24843;SDS011;12921;51.392;12.240;2022-12-18T06:43:33;41.17;;;17.63;;
24843;SDS011;12921;51.392;12.240;2022-12-18T06:45:59;34.17;;;18.23;;
24843;SDS011;12921;51.392;12.240;2022-12-18T06:48:26;16.73;;;10.05;;
24843;SDS011;12921;51.392;12.240;2022-12-18T06:50:53;4.43;;;1.40;;
24843;SDS011;12921;51.392;12.240;2022-12-18T06:53:18;38.05;;;17.00;;
24843;SDS011;12921;51.392;12.240;2022-12-18T06:55:44;30.30;;;13.23;;
24843;SDS011;12921;51.392;12.240;2022-12-18T06:58:09;21.15;;;11.18;;
24843;SDS011;12921;51.392;12.240;2022-12-18T07:00:35;10.93;;;4.97;;
24843;SDS011;12921;51.392;12.240;2022-12-18T07:03:01;20.15;;;10.00;;
24843;SDS011;12921;51.392;12.240;2022-12-18T07:05:26;23.95;;;12.77;;
24843;SDS011;12921;51.392;12.240;2022-12-18T07:07:53;17.50;;;6.78;;
24843;SDS011;12921;51.392;12.240;2022-12-18T07:10:18;35.03;;;17.08;;
24843;SDS011;12921;51.392;12.240;2022-12-18T07:12:44;47.05;;;21.65;;
24843;SDS011;12921;51.392;12.240;2022-12-18T07:15:10;51.55;;;16.67;;
24843;SDS011;12921;51.392;12.240;2022-12-18T07:17:35;57.78;;;24.02;;
24843;SDS011;12921;51.392;12.240;2022-12-18T07:20:01;32.42;;;14.52;;
24843;SDS011;12921;51.392;12.240;2022-12-18T07:22:27;54.45;;;22.98;;
24843;SDS011;12921;51.392;12.240;2022-12-18T07:24:54;44.92;;;22.55;;
24843;SDS011;12921;51.392;12.240;2022-12-18T07:27:20;49.90;;;23.50;;
24843;SDS011;12921;51.392;12.240;2022-12-18T07:29:46;52.78;;;23.17;;
24843;SDS011;12921;51.392;12.240;2022-12-18T07:32:12;23.20;;;13.85;;
24843;SDS011;12921;51.392;12.240;2022-12-18T07:34:37;59.75;;;24.48;;
24843;SDS011;12921;51.392;12.240;2022-12-18T07:37:03;62.03;;;29.90;;
24843;SDS011;12921;51.392;12.240;2022-12-18T07:39:28;70.78;;;32.63;;
24843;SDS011;12921;51.392;12.240;2022-12-18T07:41:54;71.13;;;30.63;;
24843;SDS011;12921;51.392;12.240;2022-12-18T07:44:38;54.97;;;26.65;;
24843;SDS011;12921;51.392;12.240;2022-12-18T07:47:04;53.22;;;23.10;;
24843;SDS011;12921;51.392;12.240;2022-12-18T07:49:30;76.30;;;33.33;;
24843;SDS011;12921;51.392;12.240;2022-12-18T07:51:55;29.95;;;16.20;;
24843;SDS011;12921;51.392;12.240;2022-12-18T07:54:22;64.32;;;29.60;;
24843;SDS011;12921;51.392;12.240;2022-12-18T07:56:48;57.22;;;24.40;;
24843;SDS011;12921;51.392;12.240;2022-12-18T07:59:14;61.53;;;30.35;;
24843;SDS011;12921;51.392;12.240;2022-12-18T08:01:39;66.35;;;31.98;;
24843;SDS011;12921;51.392;12.240;2022-12-18T08:04:05;71.50;;;33.50;;
24843;SDS011;12921;51.392;12.240;2022-12-18T08:06:31;72.10;;;31.15;;
24843;SDS011;12921;51.392;12.240;2022-12-18T08:08:56;70.25;;;33.90;;
24843;SDS011;12921;51.392;12.240;2022-12-18T08:11:23;65.07;;;33.00;;
24843;SDS011;12921;51.392;12.240;2022-12-18T08:13:50;81.95;;;40.17;;
24843;SDS011;12921;51.392;12.240;2022-12-18T08:16:16;74.32;;;36.67;;
24843;SDS011;12921;51.392;12.240;2022-12-18T08:18:42;75.45;;;39.80;;
24843;SDS011;12921;51.392;12.240;2022-12-18T08:21:15;79.00;;;38.45;;
24843;SDS011;12921;51.392;12.240;2022-12-18T08:23:47;68.10;;;30.55;;
24843;SDS011;12921;51.392;12.240;2022-12-18T08:26:14;63.08;;;31.52;;
24843;SDS011;12921;51.392;12.240;2022-12-18T08:28:40;74.25;;;34.35;;
24843;SDS011;12921;51.392;12.240;2022-12-18T08:31:06;61.45;;;30.75;;
24843;SDS011;12921;51.392;12.240;2022-12-18T08:33:33;43.75;;;20.70;;
24843;SDS011;12921;51.392;12.240;2022-12-18T08:35:59;35.40;;;17.08;;
24843;SDS011;12921;51.392;12.240;2022-12-18T08:38:25;61.88;;;33.17;;
24843;SDS011;12921;51.392;12.240;2022-12-18T08:41:00;71.70;;;40.83;;
24843;SDS011;12921;51.392;12.240;2022-12-18T08:43:30;36.15;;;15.35;;
24843;SDS011;12921;51.392;12.240;2022-12-18T08:46:14;72.03;;;33.35;;
24843;SDS011;12921;51.392;12.240;2022-12-18T08:48:42;36.42;;;19.15;;
24843;SDS011;12921;51.392;12.240;2022-12-18T08:51:08;56.53;;;26.95;;
24843;SDS011;12921;51.392;12.240;2022-12-18T08:53:34;40.13;;;21.10;;
24843;SDS011;12921;51.392;12.240;2022-12-18T08:56:01;31.33;;;13.93;;
24843;SDS011;12921;51.392;12.240;2022-12-18T08:58:27;56.22;;;29.13;;
24843;SDS011;12921;51.392;12.240;2022-12-18T09:00:52;48.35;;;23.52;;
24843;SDS011;12921;51.392;12.240;2022-12-18T09:03:19;56.47;;;26.10;;
24843;SDS011;12921;51.392;12.240;2022-12-18T09:05:47;56.80;;;30.10;;
24843;SDS011;12921;51.392;12.240;2022-12-18T09:08:13;48.58;;;21.33;;
24843;SDS011;12921;51.392;12.240;2022-12-18T09:10:45;88.82;;;44.70;;
24843;SDS011;12921;51.392;12.240;2022-12-18T09:13:13;153.88;;;93.43;;
24843;SDS011;12921;51.392;12.240;2022-12-18T09:15:43;48.05;;;23.98;;
24843;SDS011;12921;51.392;12.240;2022-12-18T09:18:16;25.30;;;13.68;;
24843;SDS011;12921;51.392;12.240;2022-12-18T09:20:43;24.13;;;8.95;;
24843;SDS011;12921;51.392;12.240;2022-12-18T09:23:09;17.20;;;7.43;;
24843;SDS011;12921;51.392;12.240;2022-12-18T09:25:35;40.40;;;24.98;;
24843;SDS011;12921;51.392;12.240;2022-12-18T09:28:02;19.23;;;10.35;;
24843;SDS011;12921;51.392;12.240;2022-12-18T09:30:36;45.67;;;22.08;;
24843;SDS011;12921;51.392;12.240;2022-12-18T09:33:06;48.83;;;23.83;;
24843;SDS011;12921;51.392;12.240;2022-12-18T09:35:32;45.08;;;25.40;;
24843;SDS011;12921;51.392;12.240;2022-12-18T09:38:00;43.33;;;23.27;;
24843;SDS011;12921;51.392;12.240;2022-12-18T09:40:26;40.95;;;20.73;;
24843;SDS011;12921;51.392;12.240;2022-12-18T09:42:58;43.63;;;21.20;;
24843;SDS011;12921;51.392;12.240;2022-12-18T09:45:26;38.75;;;21.98;;
24843;SDS011;12921;51.392;12.240;2022-12-18T09:47:56;46.05;;;23.88;;
24843;SDS011;12921;51.392;12.240;2022-12-18T09:50:35;35.30;;;16.30;;
24843;SDS011;12921;51.392;12.240;2022-12-18T09:53:10;38.63;;;22.40;;
24843;SDS011;12921;51.392;12.240;2022-12-18T09:55:44;47.88;;;24.08;;
24843;SDS011;12921;51.392;12.240;2022-12-18T09:58:24;44.40;;;24.30;;
24843;SDS011;12921;51.392;12.240;2022-12-18T10:01:01;33.40;;;18.27;;
24843;SDS011;12921;51.392;12.240;2022-12-18T10:03:26;16.23;;;9.15;;
24843;SDS011;12921;51.392;12.240;2022-12-18T10:13:54;29.00;;;16.77;;
24843;SDS011;12921;51.392;12.240;2022-12-18T10:29:42;21.45;;;12.98;;
24843;SDS011;12921;51.392;12.240;2022-12-18T10:32:13;34.53;;;17.73;;
24843;SDS011;12921;51.392;12.240;2022-12-18T10:34:45;32.63;;;17.23;;
24843;SDS011;12921;51.392;12.240;2022-12-18T10:37:16;13.90;;;8.63;;
24843;SDS011;12921;51.392;12.240;2022-12-18T10:39:44;36.17;;;19.67;;
24843;SDS011;12921;51.392;12.240;2022-12-18T10:42:14;18.33;;;11.32;;
24843;SDS011;12921;51.392;12.240;2022-12-18T10:44:43;20.95;;;11.40;;
24843;SDS011;12921;51.392;12.240;2022-12-18T10:47:12;19.02;;;11.85;;
24843;SDS011;12921;51.392;12.240;2022-12-18T10:49:47;27.75;;;16.40;;
24843;SDS011;12921;51.392;12.240;2022-12-18T10:52:18;17.63;;;10.55;;
24843;SDS011;12921;51.392;12.240;2022-12-18T10:54:48;23.83;;;13.18;;
24843;SDS011;12921;51.392;12.240;2022-12-18T11:02:46;25.15;;;13.80;;
24843;SDS011;12921;51.392;12.240;2022-12-18T11:05:28;23.02;;;14.00;;
24843;SDS011;12921;51.392;12.240;2022-12-18T11:07:54;19.17;;;11.00;;
24843;SDS011;12921;51.392;12.240;2022-12-18T11:10:21;20.85;;;11.18;;
24843;SDS011;12921;51.392;12.240;2022-12-18T11:12:50;13.82;;;8.07;;
24843;SDS011;12921;51.392;12.240;2022-12-18T11:15:18;22.92;;;10.93;;
24843;SDS011;12921;51.392;12.240;2022-12-18T11:17:49;19.38;;;11.88;;
24843;SDS011;12921;51.392;12.240;2022-12-18T11:20:34;13.65;;;7.75;;
24843;SDS011;12921;51.392;12.240;2022-12-18T11:23:02;19.45;;;10.50;;
24843;SDS011;12921;51.392;12.240;2022-12-18T11:25:30;11.98;;;8.02;;
24843;SDS011;12921;51.392;12.240;2022-12-18T11:28:02;8.45;;;4.43;;
24843;SDS011;12921;51.392;12.240;2022-12-18T11:31:08;12.32;;;6.03;;
24843;SDS011;12921;51.392;12.240;2022-12-18T11:33:44;8.02;;;4.18;;
24843;SDS011;12921;51.392;12.240;2022-12-18T11:36:17;13.25;;;7.18;;
24843;SDS011;12921;51.392;12.240;2022-12-18T11:38:45;11.23;;;6.28;;
24843;SDS011;12921;51.392;12.240;2022-12-18T11:44:22;3.13;;;2.45;;
24843;SDS011;12921;51.392;12.240;2022-12-18T11:46:55;6.85;;;5.05;;
24843;SDS011;12921;51.392;12.240;2022-12-18T11:49:26;5.93;;;5.03;;
24843;SDS011;12921;51.392;12.240;2022-12-18T11:52:00;8.85;;;4.43;;
24843;SDS011;12921;51.392;12.240;2022-12-18T11:54:40;6.13;;;4.10;;
24843;SDS011;12921;51.392;12.240;2022-12-18T11:57:09;8.23;;;5.25;;
24843;SDS011;12921;51.392;12.240;2022-12-18T12:05:23;10.98;;;6.22;;
24843;SDS011;12921;51.392;12.240;2022-12-18T12:16:17;5.93;;;4.15;;
24843;SDS011;12921;51.392;12.240;2022-12-18T12:18:53;4.67;;;3.00;;
24843;SDS011;12921;51.392;12.240;2022-12-18T12:26:45;15.10;;;10.10;;
24843;SDS011;12921;51.392;12.240;2022-12-18T12:35:19;10.38;;;5.70;;
24843;SDS011;12921;51.392;12.240;2022-12-18T12:38:02;9.68;;;6.55;;
24843;SDS011;12921;51.392;12.240;2022-12-18T12:40:38;13.85;;;4.75;;
24843;SDS011;12921;51.392;12.240;2022-12-18T12:46:14;30.40;;;15.00;;
24843;SDS011;12921;51.392;12.240;2022-12-18T12:48:47;9.30;;;3.33;;
24843;SDS011;12921;51.392;12.240;2022-12-18T12:51:33;5.05;;;3.33;;
24843;SDS011;12921;51.392;12.240;2022-12-18T12:54:02;16.17;;;10.68;;
24843;SDS011;12921;51.392;12.240;2022-12-18T12:59:47;9.35;;;6.13;;
24843;SDS011;12921;51.392;12.240;2022-12-18T13:04:47;19.70;;;11.38;;
24843;SDS011;12921;51.392;12.240;2022-12-18T13:07:24;14.20;;;8.25;;
24843;SDS011;12921;51.392;12.240;2022-12-18T13:10:13;27.98;;;17.48;;
24843;SDS011;12921;51.392;12.240;2022-12-18T13:15:23;6.43;;;4.88;;
24843;SDS011;12921;51.392;12.240;2022-12-18T13:17:49;3.97;;;3.53;;
24843;SDS011;12921;51.392;12.240;2022-12-18T13:25:53;21.40;;;9.85;;
24843;SDS011;12921;51.392;12.240;2022-12-18T13:31:08;11.05;;;7.18;;
24843;SDS011;12921;51.392;12.240;2022-12-18T13:33:38;16.05;;;7.75;;
24843;SDS011;12921;51.392;12.240;2022-12-18T13:38:45;26.38;;;14.25;;
24843;SDS011;12921;51.392;12.240;2022-12-18T13:41:26;25.98;;;16.85;;
24843;SDS011;12921;51.392;12.240;2022-12-18T13:43:56;17.38;;;9.13;;
24843;SDS011;12921;51.392;12.240;2022-12-18T13:46:48;13.50;;;6.45;;
24843;SDS011;12921;51.392;12.240;2022-12-18T13:49:31;22.77;;;12.63;;
24843;SDS011;12921;51.392;12.240;2022-12-18T13:52:03;17.65;;;8.75;;
24843;SDS011;12921;51.392;12.240;2022-12-18T13:54:41;21.95;;;10.60;;
24843;SDS011;12921;51.392;12.240;2022-12-18T14:02:53;20.20;;;9.60;;
24843;SDS011;12921;51.392;12.240;2022-12-18T14:05:23;22.20;;;12.63;;
24843;SDS011;12921;51.392;12.240;2022-12-18T14:08:14;28.80;;;16.13;;
24843;SDS011;12921;51.392;12.240;2022-12-18T14:10:41;23.33;;;13.55;;
24843;SDS011;12921;51.392;12.240;2022-12-18T14:13:19;11.18;;;7.13;;
24843;SDS011;12921;51.392;12.240;2022-12-18T14:15:46;8.40;;;5.13;;
24843;SDS011;12921;51.392;12.240;2022-12-18T14:20:39;23.85;;;13.68;;
24843;SDS011;12921;51.392;12.240;2022-12-18T14:23:28;8.48;;;3.67;;
24843;SDS011;12921;51.392;12.240;2022-12-18T14:26:01;15.73;;;8.63;;
24843;SDS011;12921;51.392;12.240;2022-12-18T14:28:28;1.63;;;1.55;;
24843;SDS011;12921;51.392;12.240;2022-12-18T14:30:54;8.85;;;5.07;;
24843;SDS011;12921;51.392;12.240;2022-12-18T14:33:25;3.78;;;3.42;;
24843;SDS011;12921;51.392;12.240;2022-12-18T14:35:59;10.18;;;5.07;;
24843;SDS011;12921;51.392;12.240;2022-12-18T14:38:33;12.25;;;7.43;;
24843;SDS011;12921;51.392;12.240;2022-12-18T14:41:09;9.10;;;5.65;;
24843;SDS011;12921;51.392;12.240;2022-12-18T14:43:38;14.32;;;6.90;;
24843;SDS011;12921;51.392;12.240;2022-12-18T14:46:05;12.52;;;7.28;;
24843;SDS011;12921;51.392;12.240;2022-12-18T14:51:20;19.63;;;10.63;;
24843;SDS011;12921;51.392;12.240;2022-12-18T14:53:57;5.10;;;4.80;;
24843;SDS011;12921;51.392;12.240;2022-12-18T14:56:32;6.70;;;4.85;;
24843;SDS011;12921;51.392;12.240;2022-12-18T14:59:03;3.58;;;3.25;;
24843;SDS011;12921;51.392;12.240;2022-12-18T15:01:37;5.68;;;5.15;;
24843;SDS011;12921;51.392;12.240;2022-12-18T15:04:26;23.05;;;8.80;;
24843;SDS011;12921;51.392;12.240;2022-12-18T15:09:35;16.02;;;8.90;;
24843;SDS011;12921;51.392;12.240;2022-12-18T15:12:02;1.85;;;1.73;;
24843;SDS011;12921;51.392;12.240;2022-12-18T15:14:32;2.65;;;2.55;;
24843;SDS011;12921;51.392;12.240;2022-12-18T15:17:17;8.68;;;4.18;;
24843;SDS011;12921;51.392;12.240;2022-12-18T15:19:46;5.07;;;4.53;;
24843;SDS011;12921;51.392;12.240;2022-12-18T15:24:51;2.65;;;2.45;;
24843;SDS011;12921;51.392;12.240;2022-12-18T15:27:22;3.72;;;3.38;;
24843;SDS011;12921;51.392;12.240;2022-12-18T15:32:32;6.93;;;2.88;;
24843;SDS011;12921;51.392;12.240;2022-12-18T15:37:36;12.65;;;7.28;;
24843;SDS011;12921;51.392;12.240;2022-12-18T15:40:02;7.97;;;3.60;;
24843;SDS011;12921;51.392;12.240;2022-12-18T15:42:29;18.05;;;9.30;;
24843;SDS011;12921;51.392;12.240;2022-12-18T15:45:13;7.45;;;2.03;;
24843;SDS011;12921;51.392;12.240;2022-12-18T15:47:39;4.05;;;3.05;;
24843;SDS011;12921;51.392;12.240;2022-12-18T15:50:06;3.22;;;2.92;;
24843;SDS011;12921;51.392;12.240;2022-12-18T15:52:35;2.55;;;2.08;;
24843;SDS011;12921;51.392;12.240;2022-12-18T15:55:10;4.63;;;4.20;;
24843;SDS011;12921;51.392;12.240;2022-12-18T15:57:57;2.08;;;1.80;;
24843;SDS011;12921;51.392;12.240;2022-12-18T16:00:23;3.05;;;2.95;;
24843;SDS011;12921;51.392;12.240;2022-12-18T16:02:48;7.38;;;6.32;;
24843;SDS011;12921;51.392;12.240;2022-12-18T16:05:14;8.20;;;4.72;;
24843;SDS011;12921;51.392;12.240;2022-12-18T16:07:42;9.32;;;3.63;;
24843;SDS011;12921;51.392;12.240;2022-12-18T16:10:11;2.42;;;2.33;;
24843;SDS011;12921;51.392;12.240;2022-12-18T16:12:36;10.02;;;5.57;;
24843;SDS011;12921;51.392;12.240;2022-12-18T16:15:03;9.98;;;2.80;;
24843;SDS011;12921;51.392;12.240;2022-12-18T16:17:30;1.98;;;1.88;;
24843;SDS011;12921;51.392;12.240;2022-12-18T16:19:56;8.68;;;5.95;;
24843;SDS011;12921;51.392;12.240;2022-12-18T16:22:23;0.93;;;0.93;;
24843;SDS011;12921;51.392;12.240;2022-12-18T16:24:50;1.95;;;1.85;;
24843;SDS011;12921;51.392;12.240;2022-12-18T16:27:17;0.95;;;0.95;;
24843;SDS011;12921;51.392;12.240;2022-12-18T16:29:43;0.60;;;0.60;;
24843;SDS011;12921;51.392;12.240;2022-12-18T16:32:11;2.88;;;2.20;;
24843;SDS011;12921;51.392;12.240;2022-12-18T16:34:39;6.97;;;2.50;;
24843;SDS011;12921;51.392;12.240;2022-12-18T16:37:06;3.25;;;3.03;;